createdAt,value
2018-12-08T00:01:41.396Z,100.00
2018-12-08T00:04:10.431Z,98.69
2018-12-08T00:06:39.776Z,100.00
2018-12-08T00:09:08.800Z,100.00
2018-12-08T00:11:37.866Z,100.00
2018-12-08T00:14:06.896Z,100.00
2018-12-08T00:16:35.866Z,100.00
2018-12-08T00:19:04.905Z,100.00
2018-12-08T00:21:34.014Z,100.00
2018-12-08T00:24:03.031Z,100.00
2018-12-08T00:26:31.991Z,100.00
2018-12-08T00:29:01.271Z,100.00
2018-12-08T00:31:50.849Z,100.00
2018-12-08T00:34:19.864Z,100.00
2018-12-08T00:36:48.909Z,100.00
2018-12-08T00:39:17.872Z,100.00
2018-12-08T00:41:46.898Z,100.00
2018-12-08T00:44:15.883Z,100.00
2018-12-08T00:46:44.855Z,100.00
2018-12-08T00:49:14.099Z,100.00
2018-12-08T00:51:43.068Z,100.00
2018-12-08T00:54:12.129Z,100.00
2018-12-08T00:56:41.250Z,100.00
2018-12-08T00:59:10.218Z,100.00
2018-12-08T01:01:39.245Z,100.00
2018-12-08T01:04:08.651Z,100.00
2018-12-08T01:06:37.729Z,100.00
2018-12-08T01:09:07.358Z,100.00
2018-12-08T01:11:36.358Z,100.00
2018-12-08T01:14:05.479Z,100.00
2018-12-08T01:16:34.466Z,100.00
2018-12-08T01:19:03.528Z,100.00
2018-12-08T01:21:32.492Z,100.00
2018-12-08T01:24:01.485Z,100.00
2018-12-08T01:26:30.833Z,100.00
2018-12-08T01:28:59.792Z,100.00
2018-12-08T01:31:28.862Z,100.00
2018-12-08T01:33:57.937Z,100.00
2018-12-08T01:36:27.043Z,100.00
2018-12-08T01:38:55.987Z,100.00
2018-12-08T01:41:25.022Z,99.44
2018-12-08T01:43:53.979Z,94.86
2018-12-08T01:46:22.956Z,99.74
2018-12-08T01:48:52.054Z,100.00
2018-12-08T01:51:21.069Z,100.00
2018-12-08T01:53:50.084Z,100.00
2018-12-08T01:56:19.169Z,97.02
2018-12-08T01:58:48.094Z,94.20
2018-12-08T02:01:17.164Z,92.73
2018-12-08T02:03:46.170Z,89.13
2018-12-08T02:06:15.180Z,83.92
2018-12-08T02:08:44.144Z,84.72
2018-12-08T02:11:13.514Z,86.22
2018-12-08T02:13:42.625Z,91.51
2018-12-08T02:16:11.619Z,96.69
2018-12-08T02:18:40.974Z,98.62
2018-12-08T02:21:09.932Z,100.00
2018-12-08T02:23:38.878Z,100.00
2018-12-08T02:26:07.931Z,94.45
2018-12-08T02:28:36.966Z,88.99
2018-12-08T02:31:05.974Z,84.88
2018-12-08T02:33:35.442Z,81.46
2018-12-08T02:36:04.433Z,99.26
2018-12-08T02:38:33.435Z,100.00
2018-12-08T02:41:02.520Z,100.00
2018-12-08T02:43:31.609Z,100.00
2018-12-08T02:46:00.664Z,100.00
2018-12-08T02:48:29.757Z,100.00
2018-12-08T02:50:58.776Z,100.00
2018-12-08T02:53:27.806Z,100.00
2018-12-08T02:55:57.079Z,100.00
2018-12-08T02:58:26.188Z,100.00
2018-12-08T03:00:55.249Z,100.00
2018-12-08T03:03:24.367Z,100.00
2018-12-08T03:05:53.358Z,100.00
2018-12-08T03:08:22.318Z,100.00
2018-12-08T03:10:51.397Z,100.00
2018-12-08T03:13:20.390Z,100.00
2018-12-08T03:15:49.415Z,100.00
2018-12-08T03:18:18.490Z,100.00
2018-12-08T03:20:47.563Z,100.00
2018-12-08T03:23:16.573Z,100.00
2018-12-08T03:25:45.922Z,100.00
2018-12-08T03:28:14.946Z,100.00
2018-12-08T03:30:45.389Z,100.00
2018-12-08T03:33:13.161Z,100.00
2018-12-08T03:35:42.251Z,100.00
2018-12-08T03:38:11.239Z,100.00
2018-12-08T03:40:40.360Z,100.00
2018-12-08T03:43:09.418Z,100.00
2018-12-08T03:45:38.396Z,100.00
2018-12-08T03:48:07.453Z,100.00
2018-12-08T03:50:36.488Z,100.00
2018-12-08T03:53:05.473Z,100.00
2018-12-08T03:55:34.457Z,100.00
2018-12-08T03:58:03.521Z,100.00
2018-12-08T04:00:32.476Z,100.00
2018-12-08T04:03:01.567Z,100.00
2018-12-08T04:05:30.752Z,100.00
2018-12-08T04:07:59.707Z,100.00
2018-12-08T04:10:28.710Z,100.00
2018-12-08T04:12:57.689Z,100.00
2018-12-08T04:15:26.704Z,100.00
2018-12-08T04:17:55.886Z,100.00
2018-12-08T04:20:24.953Z,100.00
2018-12-08T04:22:53.981Z,100.00
2018-12-08T04:25:23.366Z,100.00
2018-12-08T04:27:52.322Z,100.00
2018-12-08T04:30:21.491Z,100.00
2018-12-08T04:32:50.541Z,100.00
2018-12-08T04:35:19.515Z,100.00
2018-12-08T04:37:48.542Z,100.00
2018-12-08T04:40:17.656Z,100.00
2018-12-08T04:42:46.735Z,100.00
2018-12-08T04:45:15.856Z,100.00
2018-12-08T04:47:45.130Z,100.00
2018-12-08T04:50:14.154Z,100.00
2018-12-08T04:52:43.130Z,100.00
2018-12-08T04:55:12.184Z,100.00
2018-12-08T04:57:41.288Z,100.00
2018-12-08T05:00:10.446Z,100.00
2018-12-08T05:02:39.475Z,100.00
2018-12-08T05:05:08.730Z,100.00
2018-12-08T05:07:37.756Z,100.00
2018-12-08T05:10:07.860Z,100.00
2018-12-08T05:12:36.917Z,100.00
2018-12-08T05:15:06.289Z,100.00
2018-12-08T05:17:35.472Z,100.00
2018-12-08T05:20:04.780Z,100.00
2018-12-08T05:22:33.941Z,100.00
2018-12-08T05:25:03.191Z,100.00
2018-12-08T05:27:32.230Z,100.00
2018-12-08T05:30:01.245Z,100.00
2018-12-08T05:32:30.247Z,100.00
2018-12-08T05:34:59.255Z,100.00
2018-12-08T05:37:28.294Z,100.00
2018-12-08T05:39:57.320Z,100.00
2018-12-08T05:42:26.436Z,100.00
2018-12-08T05:44:55.465Z,100.00
2018-12-08T05:47:24.472Z,100.00
2018-12-08T05:49:53.582Z,100.00
2018-12-08T05:52:23.082Z,100.00
2018-12-08T05:54:52.195Z,100.00
2018-12-08T05:57:21.216Z,100.00
2018-12-08T05:59:50.346Z,100.00
2018-12-08T06:02:19.439Z,100.00
2018-12-08T06:04:48.437Z,95.60
2018-12-08T06:07:17.439Z,88.35
2018-12-08T06:09:46.494Z,97.81
2018-12-08T06:12:15.413Z,100.00
2018-12-08T06:14:44.479Z,100.00
2018-12-08T06:17:13.604Z,100.00
2018-12-08T06:19:43.168Z,100.00
2018-12-08T06:22:12.250Z,100.00
2018-12-08T06:24:41.414Z,100.00
2018-12-08T06:27:37.570Z,100.00
2018-12-08T06:30:08.042Z,100.00
2018-12-08T06:32:37.085Z,100.00
2018-12-08T06:35:06.175Z,82.66
2018-12-08T06:37:35.259Z,84.85
2018-12-08T06:40:04.364Z,80.67
2018-12-08T06:42:33.580Z,80.08
2018-12-08T06:45:02.949Z,84.36
2018-12-08T06:47:31.972Z,80.07
2018-12-08T06:50:00.971Z,80.73
2018-12-08T06:52:30.087Z,80.08
2018-12-08T06:54:59.191Z,79.12
2018-12-08T06:57:28.210Z,77.42
2018-12-08T06:59:57.258Z,79.01
2018-12-08T07:02:26.202Z,83.65
2018-12-08T07:04:55.204Z,99.45
2018-12-08T07:07:24.345Z,92.11
2018-12-08T07:09:53.334Z,92.79
2018-12-08T07:12:22.462Z,96.18
2018-12-08T07:14:51.478Z,93.30
2018-12-08T07:17:20.616Z,93.32
2018-12-08T07:19:49.648Z,95.94
2018-12-08T07:22:18.878Z,98.29
2018-12-08T07:24:47.940Z,92.86
2018-12-08T07:27:16.930Z,86.57
2018-12-08T07:29:46.091Z,85.50
2018-12-08T07:32:15.354Z,88.47
2018-12-08T07:34:44.446Z,92.63
2018-12-08T07:37:13.487Z,92.20
2018-12-08T07:39:42.548Z,86.21
2018-12-08T07:42:11.546Z,90.35
2018-12-08T07:44:40.562Z,86.90
2018-12-08T07:47:09.591Z,87.74
2018-12-08T07:49:38.542Z,92.83
2018-12-08T07:52:07.623Z,100.00
2018-12-08T07:54:36.699Z,100.00
2018-12-08T07:57:05.797Z,95.51
2018-12-08T07:59:34.841Z,93.21
2018-12-08T08:02:03.960Z,93.30
2018-12-08T08:04:32.980Z,93.25
2018-12-08T08:07:02.057Z,100.00
2018-12-08T08:09:31.099Z,99.90
2018-12-08T08:12:00.076Z,100.00
2018-12-08T08:14:29.181Z,100.00
2018-12-08T08:16:59.602Z,100.00
2018-12-08T08:19:27.391Z,97.83
2018-12-08T08:21:56.583Z,99.36
2018-12-08T08:24:25.681Z,96.17
2018-12-08T08:26:54.754Z,96.70
2018-12-08T08:29:24.074Z,94.62
2018-12-08T08:31:53.108Z,89.53
2018-12-08T08:34:22.150Z,87.78
2018-12-08T08:36:51.336Z,88.80
2018-12-08T08:39:20.411Z,89.01
2018-12-08T08:41:49.540Z,93.83
2018-12-08T08:44:18.630Z,87.67
2018-12-08T08:46:47.651Z,90.26
2018-12-08T08:49:16.716Z,83.05
2018-12-08T08:51:45.837Z,86.57
2018-12-08T08:54:14.821Z,84.16
2018-12-08T08:56:43.839Z,85.11
2018-12-08T08:59:12.879Z,83.23
2018-12-08T09:01:41.991Z,86.26
2018-12-08T09:04:10.977Z,87.61
2018-12-08T09:06:40.038Z,89.51
2018-12-08T09:09:09.112Z,94.06
2018-12-08T09:11:38.127Z,87.53
2018-12-08T09:14:13.251Z,84.75
2018-12-08T09:16:36.491Z,84.25
2018-12-08T09:19:05.566Z,92.10
2018-12-08T09:21:34.623Z,94.26
2018-12-08T09:24:03.644Z,93.00
2018-12-08T09:26:32.699Z,94.43
2018-12-08T09:29:01.799Z,96.17
2018-12-08T09:31:30.875Z,100.00
2018-12-08T09:33:59.890Z,100.00
2018-12-08T09:36:29.062Z,100.00
2018-12-08T09:38:58.158Z,100.00
2018-12-08T09:41:27.148Z,100.00
2018-12-08T09:43:56.187Z,100.00
2018-12-08T09:46:25.160Z,100.00
2018-12-08T09:48:54.507Z,93.88
2018-12-08T09:51:23.576Z,89.83
2018-12-08T09:53:52.552Z,92.49
2018-12-08T09:56:21.568Z,89.33
2018-12-08T09:58:50.891Z,89.37
2018-12-08T10:01:19.870Z,86.65
2018-12-08T10:03:49.035Z,83.21
2018-12-08T10:06:18.480Z,81.45
2018-12-08T10:08:47.518Z,79.24
2018-12-08T10:11:16.492Z,76.50
2018-12-08T10:13:45.562Z,78.01
2018-12-08T10:16:14.569Z,79.02
2018-12-08T10:18:43.641Z,74.71
2018-12-08T10:21:12.737Z,73.52
2018-12-08T10:23:41.855Z,73.17
2018-12-08T10:26:10.832Z,68.82
2018-12-08T10:28:39.867Z,72.44
2018-12-08T10:31:09.004Z,67.07
2018-12-08T10:33:38.053Z,69.50
2018-12-08T10:36:07.162Z,72.22
2018-12-08T10:38:36.349Z,72.29
2018-12-08T10:41:05.545Z,68.86
2018-12-08T10:43:34.728Z,69.42
2018-12-08T10:46:03.866Z,72.22
2018-12-08T10:48:32.921Z,73.53
2018-12-08T10:51:02.052Z,69.40
2018-12-08T10:53:31.034Z,69.73
2018-12-08T10:56:00.059Z,67.53
2018-12-08T10:58:29.135Z,67.91
2018-12-08T11:01:03.255Z,65.82
2018-12-08T11:03:46.424Z,68.57
2018-12-08T11:06:16.983Z,66.95
2018-12-08T11:08:44.676Z,68.72
2018-12-08T11:11:13.767Z,69.42
2018-12-08T11:13:42.755Z,67.84
2018-12-08T11:16:11.770Z,70.54
2018-12-08T11:18:40.947Z,72.24
2018-12-08T11:21:09.960Z,70.48
2018-12-08T11:23:38.999Z,68.96
2018-12-08T11:26:08.036Z,66.60
2018-12-08T11:28:37.045Z,66.85
2018-12-08T11:31:06.139Z,69.07
2018-12-08T11:33:35.211Z,67.47
2018-12-08T11:36:04.198Z,71.71
2018-12-08T11:38:33.220Z,69.59
2018-12-08T11:41:02.263Z,69.17
2018-12-08T11:43:31.335Z,68.41
2018-12-08T11:46:00.339Z,70.11
2018-12-08T11:48:29.375Z,69.43
2018-12-08T11:50:58.392Z,70.62
2018-12-08T11:53:27.388Z,66.06
2018-12-08T11:55:56.784Z,69.95
2018-12-08T11:58:25.777Z,64.97
2018-12-08T12:00:54.787Z,66.58
2018-12-08T12:03:24.172Z,69.39
2018-12-08T12:05:53.261Z,68.42
2018-12-08T12:08:22.226Z,70.57
2018-12-08T12:10:51.288Z,75.07
2018-12-08T12:13:20.268Z,75.33
2018-12-08T12:15:49.281Z,78.42
2018-12-08T12:18:18.307Z,75.62
2018-12-08T12:20:47.398Z,72.29
2018-12-08T12:23:16.367Z,71.07
2018-12-08T12:25:46.413Z,70.89
2018-12-08T12:28:15.442Z,70.92
2018-12-08T12:30:44.462Z,75.18
2018-12-08T12:33:13.510Z,78.43
2018-12-08T12:35:42.552Z,74.07
2018-12-08T12:38:11.599Z,71.49
2018-12-08T12:40:40.857Z,71.13
2018-12-08T12:43:09.854Z,74.41
2018-12-08T12:45:38.859Z,75.13
2018-12-08T12:48:07.989Z,71.43
2018-12-08T12:50:36.982Z,71.90
2018-12-08T12:53:05.984Z,71.96
2018-12-08T12:55:35.062Z,73.18
2018-12-08T12:58:04.214Z,75.87
2018-12-08T13:00:33.223Z,76.22
2018-12-08T13:03:02.482Z,71.97
2018-12-08T13:05:31.523Z,71.56
2018-12-08T13:08:00.497Z,80.18
2018-12-08T13:10:29.640Z,81.26
2018-12-08T13:12:58.696Z,83.55
2018-12-08T13:15:27.770Z,85.63
2018-12-08T13:17:56.820Z,87.48
2018-12-08T13:20:25.786Z,86.46
2018-12-08T13:22:54.790Z,100.00
2018-12-08T13:25:25.786Z,88.21
2018-12-08T13:27:54.828Z,88.67
2018-12-08T13:30:23.888Z,86.39
2018-12-08T13:32:53.006Z,89.55
2018-12-08T13:35:59.480Z,87.82
2018-12-08T13:38:28.545Z,81.31
2018-12-08T13:40:57.626Z,80.81
2018-12-08T13:43:26.753Z,77.28
2018-12-08T13:45:55.898Z,77.09
2018-12-08T13:48:26.286Z,74.86
2018-12-08T13:50:55.387Z,79.61
2018-12-08T13:53:24.455Z,79.12
2018-12-08T13:55:53.486Z,77.70
2018-12-08T13:58:22.499Z,78.02
2018-12-08T14:00:51.615Z,78.25
2018-12-08T14:03:20.713Z,75.58
2018-12-08T14:05:49.683Z,77.23
2018-12-08T14:08:18.775Z,80.76
2018-12-08T14:10:47.736Z,83.12
2018-12-08T14:13:16.707Z,80.76
2018-12-08T14:15:45.737Z,76.86
2018-12-08T14:18:14.814Z,74.75
2018-12-08T14:20:43.817Z,74.57
2018-12-08T14:23:12.911Z,72.27
2018-12-08T14:25:42.033Z,73.24
2018-12-08T14:28:11.337Z,73.50
2018-12-08T14:30:40.754Z,75.17
2018-12-08T14:33:09.727Z,73.01
2018-12-08T14:38:19.086Z,81.32
2018-12-08T14:40:48.757Z,76.52
2018-12-08T14:43:17.699Z,77.12
2018-12-08T14:45:46.768Z,76.31
2018-12-08T14:48:15.805Z,76.18
2018-12-08T14:50:44.811Z,75.98
2018-12-08T14:53:14.181Z,78.43
2018-12-08T14:55:43.183Z,78.39
2018-12-08T14:58:12.135Z,84.99
2018-12-08T15:00:41.499Z,87.95
2018-12-08T15:03:10.855Z,90.42
2018-12-08T15:05:39.862Z,92.35
2018-12-08T15:08:09.000Z,92.75
2018-12-08T15:10:37.983Z,94.29
2018-12-08T15:13:07.156Z,96.38
2018-12-08T15:15:36.553Z,98.75
2018-12-08T15:18:06.307Z,99.61
2018-12-08T15:20:35.454Z,97.64
2018-12-08T15:23:04.572Z,97.69
2018-12-08T15:25:33.887Z,100.00
2018-12-08T15:28:02.895Z,100.00
2018-12-08T15:30:31.919Z,100.00
2018-12-08T15:33:00.963Z,100.00
2018-12-08T15:35:29.992Z,100.00
2018-12-08T15:37:59.039Z,100.00
2018-12-08T15:40:28.071Z,100.00
2018-12-08T15:42:57.064Z,100.00
2018-12-08T15:45:26.150Z,100.00
2018-12-08T15:47:55.307Z,100.00
2018-12-08T15:50:24.370Z,100.00
2018-12-08T15:52:53.509Z,100.00
2018-12-08T15:55:22.569Z,100.00
2018-12-08T15:57:51.598Z,100.00
2018-12-08T16:00:20.888Z,100.00
2018-12-08T16:02:49.946Z,100.00
2018-12-08T16:05:18.916Z,100.00
2018-12-08T16:07:47.986Z,100.00
2018-12-08T16:10:17.033Z,100.00
2018-12-08T16:12:46.010Z,100.00
2018-12-08T16:15:15.143Z,100.00
2018-12-08T16:17:44.119Z,100.00
2018-12-08T16:20:14.330Z,100.00
2018-12-08T16:22:43.485Z,100.00
2018-12-08T16:25:12.577Z,100.00
2018-12-08T16:27:41.739Z,100.00
2018-12-08T16:30:10.865Z,100.00
2018-12-08T16:32:39.965Z,100.00
2018-12-08T16:35:10.905Z,100.00
2018-12-08T16:37:38.308Z,100.00
2018-12-08T16:40:07.800Z,100.00
2018-12-08T16:42:36.892Z,100.00
2018-12-08T16:45:07.907Z,100.00
2018-12-08T16:47:36.889Z,100.00
2018-12-08T16:50:07.243Z,100.00
2018-12-08T16:52:36.342Z,100.00
2018-12-08T16:55:06.191Z,100.00
2018-12-08T16:57:35.287Z,100.00
2018-12-08T17:00:04.516Z,100.00
2018-12-08T17:02:33.555Z,100.00
2018-12-08T17:05:02.577Z,100.00
2018-12-08T17:07:31.841Z,100.00
2018-12-08T17:10:00.817Z,100.00
2018-12-08T17:12:29.877Z,100.00
2018-12-08T17:14:58.947Z,91.03
2018-12-08T17:17:27.937Z,90.52
2018-12-08T17:19:56.958Z,88.27
2018-12-08T17:22:25.999Z,95.06
2018-12-08T17:24:55.003Z,97.22
2018-12-08T17:27:24.009Z,98.67
2018-12-08T17:29:53.247Z,99.34
2018-12-08T17:32:22.238Z,100.00
2018-12-08T17:34:51.286Z,100.00
2018-12-08T17:37:20.343Z,100.00
2018-12-08T17:39:49.332Z,100.00
2018-12-08T17:42:18.429Z,100.00
2018-12-08T17:44:47.487Z,100.00
2018-12-08T17:47:16.506Z,98.74
2018-12-08T17:49:45.545Z,90.58
2018-12-08T17:52:14.675Z,90.53
2018-12-08T17:54:43.683Z,97.58
2018-12-08T17:57:12.841Z,100.00
2018-12-08T17:59:41.909Z,100.00
2018-12-08T18:02:12.458Z,100.00
2018-12-08T18:04:40.152Z,100.00
2018-12-08T18:07:09.611Z,100.00
2018-12-08T18:09:38.676Z,100.00
2018-12-08T18:12:07.735Z,100.00
2018-12-08T18:14:37.121Z,100.00
2018-12-08T18:17:06.247Z,100.00
2018-12-08T18:19:35.923Z,100.00
2018-12-08T18:22:05.138Z,100.00
2018-12-08T18:24:34.149Z,100.00
2018-12-08T18:27:03.232Z,100.00
2018-12-08T18:29:32.357Z,100.00
2018-12-08T18:32:01.339Z,100.00
2018-12-08T18:34:30.311Z,100.00
2018-12-08T18:36:59.396Z,100.00
2018-12-08T18:39:28.382Z,100.00
2018-12-08T18:41:57.466Z,100.00
2018-12-08T18:44:26.546Z,100.00
2018-12-08T18:46:55.553Z,100.00
2018-12-08T18:49:24.641Z,99.23
2018-12-08T18:51:53.784Z,100.00
2018-12-08T18:54:22.772Z,100.00
2018-12-08T18:56:51.738Z,100.00
2018-12-08T18:59:21.116Z,100.00
2018-12-08T19:01:50.140Z,100.00
2018-12-08T19:04:19.095Z,100.00
2018-12-08T19:06:48.159Z,100.00
2018-12-08T19:09:17.183Z,98.12
2018-12-08T19:11:46.252Z,92.04
2018-12-08T19:14:15.276Z,94.29
2018-12-08T19:16:44.354Z,97.07
2018-12-08T19:19:13.360Z,97.90
2018-12-08T19:21:42.728Z,99.04
2018-12-08T19:24:11.718Z,99.09
2018-12-08T19:26:40.708Z,99.86
2018-12-08T19:29:09.824Z,97.64
2018-12-08T19:31:38.856Z,96.97
2018-12-08T19:34:07.910Z,97.45
2018-12-08T19:36:36.965Z,98.71
2018-12-08T19:39:07.153Z,100.00
2018-12-08T19:41:36.224Z,98.79
2018-12-08T19:44:05.311Z,99.91
2018-12-08T19:46:34.300Z,100.00
2018-12-08T19:49:03.260Z,100.00
2018-12-08T19:51:32.348Z,100.00
2018-12-08T19:54:01.414Z,100.00
2018-12-08T19:56:30.465Z,100.00
2018-12-08T19:58:59.508Z,100.00
2018-12-08T20:01:28.506Z,100.00
2018-12-08T20:03:57.540Z,100.00
2018-12-08T20:06:26.663Z,96.25
2018-12-08T20:08:55.656Z,93.41
2018-12-08T20:11:24.671Z,95.52
2018-12-08T20:13:53.745Z,95.15
2018-12-08T20:16:22.927Z,99.43
2018-12-08T20:18:51.932Z,99.59
2018-12-08T20:21:21.067Z,97.32
2018-12-08T20:23:50.127Z,94.73
2018-12-08T20:26:19.131Z,98.35
2018-12-08T20:28:48.158Z,99.04
2018-12-08T20:31:17.236Z,99.87
2018-12-08T20:33:46.216Z,99.33
2018-12-08T20:36:15.366Z,100.00
2018-12-08T20:38:44.388Z,100.00
2018-12-08T20:41:13.469Z,100.00
2018-12-08T20:43:42.788Z,100.00
2018-12-08T20:46:11.840Z,100.00
2018-12-08T20:48:40.852Z,100.00
2018-12-08T20:51:10.040Z,100.00
2018-12-08T20:53:39.033Z,100.00
2018-12-08T20:56:08.127Z,100.00
2018-12-08T20:58:37.233Z,100.00
2018-12-08T21:01:06.256Z,100.00
2018-12-08T21:03:36.066Z,100.00
2018-12-08T21:06:05.175Z,100.00
2018-12-08T21:08:34.205Z,100.00
2018-12-08T21:11:03.219Z,100.00
2018-12-08T21:13:32.275Z,100.00
2018-12-08T21:16:02.258Z,100.00
2018-12-08T21:18:30.443Z,99.83
2018-12-08T21:20:59.696Z,99.61
2018-12-08T21:23:28.741Z,100.00
2018-12-08T21:25:57.742Z,98.67
2018-12-08T21:28:27.078Z,99.71
2018-12-08T21:30:56.122Z,100.00
2018-12-08T21:33:25.120Z,100.00
2018-12-08T21:35:54.250Z,100.00
2018-12-08T21:38:23.346Z,100.00
2018-12-08T21:40:52.296Z,100.00
2018-12-08T21:43:21.323Z,100.00
2018-12-08T21:45:50.326Z,100.00
2018-12-08T21:48:19.272Z,100.00
2018-12-08T21:50:48.310Z,100.00
2018-12-08T21:53:17.325Z,100.00
2018-12-08T21:55:46.374Z,100.00
2018-12-08T21:58:17.445Z,100.00
2018-12-08T22:00:46.401Z,100.00
2018-12-08T22:03:15.443Z,100.00
2018-12-08T22:05:44.470Z,100.00
2018-12-08T22:08:13.471Z,100.00
2018-12-08T22:10:42.501Z,100.00
2018-12-08T22:13:11.566Z,100.00
2018-12-08T22:15:40.582Z,100.00
2018-12-08T22:18:09.633Z,100.00
2018-12-08T22:20:38.696Z,100.00
2018-12-08T22:23:07.675Z,100.00
2018-12-08T22:25:36.664Z,100.00
2018-12-08T22:28:05.726Z,100.00
2018-12-08T22:30:34.771Z,100.00
2018-12-08T22:33:03.870Z,99.22
2018-12-08T22:35:32.972Z,100.00
2018-12-08T22:38:01.991Z,100.00
2018-12-08T22:40:30.947Z,96.45
2018-12-08T22:43:00.217Z,96.72
2018-12-08T22:45:29.197Z,99.39
2018-12-08T22:47:58.260Z,99.22
2018-12-08T22:50:27.335Z,98.83
2018-12-08T22:52:56.348Z,97.53
2018-12-08T22:55:25.358Z,95.88
2018-12-08T22:57:54.430Z,98.61
2018-12-08T23:00:46.131Z,96.67
2018-12-08T23:03:15.254Z,94.75
2018-12-08T23:05:44.280Z,97.58
2018-12-08T23:08:13.291Z,100.00
2018-12-08T23:10:42.597Z,100.00
2018-12-08T23:13:11.580Z,100.00
2018-12-08T23:15:40.564Z,100.00
2018-12-08T23:18:09.893Z,100.00
2018-12-08T23:20:38.821Z,100.00
2018-12-08T23:23:07.776Z,100.00
2018-12-08T23:25:36.808Z,100.00
2018-12-08T23:28:05.800Z,100.00
2018-12-08T23:30:34.799Z,100.00
2018-12-08T23:33:03.875Z,100.00
2018-12-08T23:35:32.872Z,100.00
2018-12-08T23:38:01.920Z,100.00
2018-12-08T23:40:31.009Z,100.00
2018-12-08T23:43:00.065Z,100.00
2018-12-08T23:45:29.036Z,100.00
2018-12-08T23:47:58.369Z,100.00
2018-12-08T23:50:27.450Z,100.00
2018-12-08T23:52:56.435Z,100.00
2018-12-08T23:55:25.509Z,100.00
2018-12-08T23:57:54.540Z,100.00
